sensor_id;sensor_type;location;lat;lon;timestamp;pressure;altitude;pressure_sealevel;temperature;humidity
49709;BME280;35601;55.902;13.606;2024-03-22T00:00:00;100753.29;;;2.68;85.02
49709;BME280;35601;55.902;13.606;2024-03-22T00:02:25;100755.43;;;2.94;84.68
49709;BME280;35601;55.902;13.606;2024-03-22T00:04:50;100751.97;;;2.82;84.44
49709;BME280;35601;55.902;13.606;2024-03-22T00:07:16;100740.44;;;2.88;84.16
49709;BME280;35601;55.902;13.606;2024-03-22T00:09:41;100728.24;;;2.89;83.19
49709;BME280;35601;55.902;13.606;2024-03-22T00:12:07;100727.52;;;2.99;82.14
49709;BME280;35601;55.902;13.606;2024-03-22T00:14:31;100717.64;;;2.75;81.32
49709;BME280;35601;55.902;13.606;2024-03-22T00:16:56;100712.93;;;2.89;80.47
49709;BME280;35601;55.902;13.606;2024-03-22T00:19:22;100702.95;;;2.95;79.75
49709;BME280;35601;55.902;13.606;2024-03-22T00:21:47;100696.59;;;2.72;79.04
49709;BME280;35601;55.902;13.606;2024-03-22T00:24:12;100693.33;;;2.91;79.06
49709;BME280;35601;55.902;13.606;2024-03-22T00:26:37;100686.45;;;2.71;78.47
49709;BME280;35601;55.902;13.606;2024-03-22T00:29:02;100684.43;;;2.50;79.33
49709;BME280;35601;55.902;13.606;2024-03-22T00:31:28;100679.35;;;2.45;80.73
49709;BME280;35601;55.902;13.606;2024-03-22T00:33:53;100682.70;;;2.64;81.05
49709;BME280;35601;55.902;13.606;2024-03-22T00:36:19;100664.38;;;2.43;81.24
49709;BME280;35601;55.902;13.606;2024-03-22T00:38:44;100673.11;;;2.36;82.61
49709;BME280;35601;55.902;13.606;2024-03-22T00:41:09;100666.98;;;2.40;82.32
49709;BME280;35601;55.902;13.606;2024-03-22T00:43:35;100668.04;;;2.28;82.40
49709;BME280;35601;55.902;13.606;2024-03-22T00:46:00;100664.81;;;2.12;82.12
49709;BME280;35601;55.902;13.606;2024-03-22T00:48:26;100659.64;;;2.42;82.02
49709;BME280;35601;55.902;13.606;2024-03-22T00:50:51;100654.25;;;2.35;81.82
49709;BME280;35601;55.902;13.606;2024-03-22T00:53:16;100651.78;;;2.55;81.16
49709;BME280;35601;55.902;13.606;2024-03-22T00:55:42;100641.21;;;2.63;80.86
49709;BME280;35601;55.902;13.606;2024-03-22T00:58:07;100639.82;;;2.56;80.38
49709;BME280;35601;55.902;13.606;2024-03-22T01:00:32;100637.75;;;2.59;80.07
49709;BME280;35601;55.902;13.606;2024-03-22T01:02:58;100633.91;;;2.17;80.57
49709;BME280;35601;55.902;13.606;2024-03-22T01:05:24;100637.38;;;2.82;80.28
49709;BME280;35601;55.902;13.606;2024-03-22T01:07:49;100628.18;;;2.73;80.34
49709;BME280;35601;55.902;13.606;2024-03-22T01:10:14;100624.94;;;2.61;81.15
49709;BME280;35601;55.902;13.606;2024-03-22T01:12:40;100615.49;;;2.50;82.19
49709;BME280;35601;55.902;13.606;2024-03-22T01:15:06;100606.29;;;2.21;83.69
49709;BME280;35601;55.902;13.606;2024-03-22T01:17:30;100597.80;;;2.11;84.09
49709;BME280;35601;55.902;13.606;2024-03-22T01:19:55;100596.82;;;2.43;84.74
49709;BME280;35601;55.902;13.606;2024-03-22T01:22:21;100593.39;;;2.37;84.63
49709;BME280;35601;55.902;13.606;2024-03-22T01:24:47;100586.65;;;2.38;84.87
49709;BME280;35601;55.902;13.606;2024-03-22T01:27:13;100579.02;;;2.22;85.28
49709;BME280;35601;55.902;13.606;2024-03-22T01:29:38;100570.47;;;2.43;86.01
49709;BME280;35601;55.902;13.606;2024-03-22T01:32:04;100565.29;;;2.43;86.04
49709;BME280;35601;55.902;13.606;2024-03-22T01:34:29;100560.18;;;2.29;87.03
49709;BME280;35601;55.902;13.606;2024-03-22T01:36:55;100550.15;;;2.61;87.14
49709;BME280;35601;55.902;13.606;2024-03-22T01:39:21;100551.90;;;2.27;87.90
49709;BME280;35601;55.902;13.606;2024-03-22T01:41:46;100549.90;;;1.90;89.60
49709;BME280;35601;55.902;13.606;2024-03-22T01:44:11;100534.36;;;2.01;90.26
49709;BME280;35601;55.902;13.606;2024-03-22T01:46:36;100532.64;;;2.37;90.32
49709;BME280;35601;55.902;13.606;2024-03-22T01:49:02;100525.09;;;1.88;90.70
49709;BME280;35601;55.902;13.606;2024-03-22T01:51:28;100516.18;;;1.90;91.55
49709;BME280;35601;55.902;13.606;2024-03-22T01:53:54;100518.19;;;2.08;92.74
49709;BME280;35601;55.902;13.606;2024-03-22T01:56:19;100518.08;;;2.22;93.24
49709;BME280;35601;55.902;13.606;2024-03-22T01:58:44;100514.02;;;2.18;93.22
49709;BME280;35601;55.902;13.606;2024-03-22T02:01:09;100517.30;;;1.88;93.40
49709;BME280;35601;55.902;13.606;2024-03-22T02:03:35;100529.10;;;1.87;93.73
49709;BME280;35601;55.902;13.606;2024-03-22T02:06:01;100524.05;;;1.92;93.58
49709;BME280;35601;55.902;13.606;2024-03-22T02:08:26;100518.91;;;2.02;93.31
49709;BME280;35601;55.902;13.606;2024-03-22T02:10:52;100519.26;;;1.99;93.17
49709;BME280;35601;55.902;13.606;2024-03-22T02:13:18;100513.67;;;1.93;94.54
49709;BME280;35601;55.902;13.606;2024-03-22T02:15:43;100504.18;;;1.57;95.76
49709;BME280;35601;55.902;13.606;2024-03-22T02:18:08;100506.09;;;1.61;97.10
49709;BME280;35601;55.902;13.606;2024-03-22T02:20:34;100500.76;;;1.52;97.46
49709;BME280;35601;55.902;13.606;2024-03-22T02:22:59;100495.38;;;1.61;97.57
49709;BME280;35601;55.902;13.606;2024-03-22T02:25:25;100489.01;;;1.72;97.36
49709;BME280;35601;55.902;13.606;2024-03-22T02:27:50;100488.91;;;1.92;96.85
49709;BME280;35601;55.902;13.606;2024-03-22T02:30:15;100481.02;;;1.73;96.29
49709;BME280;35601;55.902;13.606;2024-03-22T02:32:41;100480.07;;;1.55;97.16
49709;BME280;35601;55.902;13.606;2024-03-22T02:35:07;100472.02;;;1.98;97.12
49709;BME280;35601;55.902;13.606;2024-03-22T02:37:32;100468.48;;;1.79;96.82
49709;BME280;35601;55.902;13.606;2024-03-22T02:39:58;100461.88;;;1.99;96.96
49709;BME280;35601;55.902;13.606;2024-03-22T02:42:23;100453.51;;;1.72;97.61
49709;BME280;35601;55.902;13.606;2024-03-22T02:44:49;100442.08;;;1.91;97.94
49709;BME280;35601;55.902;13.606;2024-03-22T02:47:15;100433.71;;;1.67;98.86
49709;BME280;35601;55.902;13.606;2024-03-22T02:49:40;100433.42;;;1.48;100.00
49709;BME280;35601;55.902;13.606;2024-03-22T02:52:06;100427.95;;;1.60;100.00
49709;BME280;35601;55.902;13.606;2024-03-22T02:54:31;100425.32;;;1.73;100.00
49709;BME280;35601;55.902;13.606;2024-03-22T02:56:56;100425.38;;;1.65;100.00
49709;BME280;35601;55.902;13.606;2024-03-22T02:59:25;100415.74;;;1.52;100.00
49709;BME280;35601;55.902;13.606;2024-03-22T03:01:47;100408.26;;;1.45;100.00
49709;BME280;35601;55.902;13.606;2024-03-22T03:04:13;100404.29;;;1.92;100.00
49709;BME280;35601;55.902;13.606;2024-03-22T03:06:39;100397.70;;;1.87;100.00
49709;BME280;35601;55.902;13.606;2024-03-22T03:09:04;100390.98;;;1.46;100.00
49709;BME280;35601;55.902;13.606;2024-03-22T03:11:29;100379.20;;;1.72;100.00
49709;BME280;35601;55.902;13.606;2024-03-22T03:13:54;100374.69;;;1.71;100.00
49709;BME280;35601;55.902;13.606;2024-03-22T03:16:20;100378.20;;;1.84;100.00
49709;BME280;35601;55.902;13.606;2024-03-22T03:18:46;100372.69;;;1.47;100.00
49709;BME280;35601;55.902;13.606;2024-03-22T03:21:12;100376.21;;;1.35;100.00
49709;BME280;35601;55.902;13.606;2024-03-22T03:23:38;100371.89;;;1.82;100.00
49709;BME280;35601;55.902;13.606;2024-03-22T03:26:03;100368.78;;;1.94;100.00
49709;BME280;35601;55.902;13.606;2024-03-22T03:28:28;100368.61;;;1.83;100.00
49709;BME280;35601;55.902;13.606;2024-03-22T03:30:53;100371.28;;;1.97;100.00
49709;BME280;35601;55.902;13.606;2024-03-22T03:33:19;100370.52;;;2.05;100.00
49709;BME280;35601;55.902;13.606;2024-03-22T03:35:45;100369.69;;;2.13;100.00
49709;BME280;35601;55.902;13.606;2024-03-22T03:38:09;100365.59;;;2.20;100.00
49709;BME280;35601;55.902;13.606;2024-03-22T03:40:35;100357.56;;;1.79;100.00
49709;BME280;35601;55.902;13.606;2024-03-22T03:43:00;100355.13;;;1.92;100.00
49709;BME280;35601;55.902;13.606;2024-03-22T03:45:25;100344.55;;;1.71;100.00
49709;BME280;35601;55.902;13.606;2024-03-22T03:47:51;100339.53;;;1.60;100.00
49709;BME280;35601;55.902;13.606;2024-03-22T03:50:16;100345.13;;;1.66;100.00
49709;BME280;35601;55.902;13.606;2024-03-22T03:52:42;100339.82;;;1.58;100.00
49709;BME280;35601;55.902;13.606;2024-03-22T03:55:08;100333.22;;;2.03;100.00
49709;BME280;35601;55.902;13.606;2024-03-22T03:57:33;100323.30;;;1.73;100.00
49709;BME280;35601;55.902;13.606;2024-03-22T03:59:59;100314.44;;;1.44;100.00
49709;BME280;35601;55.902;13.606;2024-03-22T04:02:24;100314.67;;;1.15;100.00
49709;BME280;35601;55.902;13.606;2024-03-22T04:04:52;100320.37;;;1.76;100.00
49709;BME280;35601;55.902;13.606;2024-03-22T04:07:14;100317.83;;;2.03;100.00
49709;BME280;35601;55.902;13.606;2024-03-22T04:09:40;100311.71;;;1.89;100.00
49709;BME280;35601;55.902;13.606;2024-03-22T04:12:06;100313.40;;;1.98;100.00
49709;BME280;35601;55.902;13.606;2024-03-22T04:14:31;100304.66;;;2.02;100.00
49709;BME280;35601;55.902;13.606;2024-03-22T04:16:56;100296.29;;;1.73;100.00
49709;BME280;35601;55.902;13.606;2024-03-22T04:19:22;100297.05;;;1.91;100.00
49709;BME280;35601;55.902;13.606;2024-03-22T04:21:49;100296.29;;;2.11;100.00
49709;BME280;35601;55.902;13.606;2024-03-22T04:24:13;100293.10;;;2.11;100.00
49709;BME280;35601;55.902;13.606;2024-03-22T04:26:38;100285.52;;;2.08;100.00
49709;BME280;35601;55.902;13.606;2024-03-22T04:29:04;100281.18;;;2.12;100.00
49709;BME280;35601;55.902;13.606;2024-03-22T04:31:29;100282.78;;;1.95;100.00
49709;BME280;35601;55.902;13.606;2024-03-22T04:33:54;100271.22;;;2.14;100.00
49709;BME280;35601;55.902;13.606;2024-03-22T04:36:20;100274.79;;;2.04;100.00
49709;BME280;35601;55.902;13.606;2024-03-22T04:38:45;100276.10;;;2.00;100.00
49709;BME280;35601;55.902;13.606;2024-03-22T04:41:11;100263.92;;;2.36;100.00
49709;BME280;35601;55.902;13.606;2024-03-22T04:43:36;100257.47;;;2.08;100.00
49709;BME280;35601;55.902;13.606;2024-03-22T04:46:01;100256.83;;;2.23;100.00
49709;BME280;35601;55.902;13.606;2024-03-22T04:48:27;100257.48;;;2.04;100.00
49709;BME280;35601;55.902;13.606;2024-03-22T04:50:53;100253.54;;;2.48;100.00
49709;BME280;35601;55.902;13.606;2024-03-22T04:53:20;100241.61;;;2.06;100.00
49709;BME280;35601;55.902;13.606;2024-03-22T04:55:44;100247.64;;;2.26;100.00
49709;BME280;35601;55.902;13.606;2024-03-22T04:58:09;100243.16;;;1.97;100.00
49709;BME280;35601;55.902;13.606;2024-03-22T05:00:35;100240.67;;;2.19;100.00
49709;BME280;35601;55.902;13.606;2024-03-22T05:03:00;100236.33;;;2.65;100.00
49709;BME280;35601;55.902;13.606;2024-03-22T05:05:26;100234.19;;;2.40;100.00
49709;BME280;35601;55.902;13.606;2024-03-22T05:07:51;100230.54;;;2.19;100.00
49709;BME280;35601;55.902;13.606;2024-03-22T05:10:16;100223.66;;;2.56;100.00
49709;BME280;35601;55.902;13.606;2024-03-22T05:12:41;100216.26;;;2.23;100.00
49709;BME280;35601;55.902;13.606;2024-03-22T05:15:07;100215.29;;;2.29;100.00
49709;BME280;35601;55.902;13.606;2024-03-22T05:17:33;100209.32;;;2.57;100.00
49709;BME280;35601;55.902;13.606;2024-03-22T05:19:58;100204.08;;;2.16;100.00
49709;BME280;35601;55.902;13.606;2024-03-22T05:22:24;100204.22;;;2.32;100.00
49709;BME280;35601;55.902;13.606;2024-03-22T05:24:49;100204.66;;;2.26;100.00
49709;BME280;35601;55.902;13.606;2024-03-22T05:27:15;100204.47;;;2.84;100.00
49709;BME280;35601;55.902;13.606;2024-03-22T05:29:40;100198.97;;;2.39;100.00
49709;BME280;35601;55.902;13.606;2024-03-22T05:32:06;100194.15;;;2.46;100.00
49709;BME280;35601;55.902;13.606;2024-03-22T05:34:31;100185.42;;;2.09;100.00
49709;BME280;35601;55.902;13.606;2024-03-22T05:36:56;100185.06;;;2.26;100.00
49709;BME280;35601;55.902;13.606;2024-03-22T05:39:22;100189.38;;;2.20;100.00
49709;BME280;35601;55.902;13.606;2024-03-22T05:41:46;100180.31;;;2.48;100.00
49709;BME280;35601;55.902;13.606;2024-03-22T05:44:12;100180.85;;;2.52;100.00
49709;BME280;35601;55.902;13.606;2024-03-22T05:46:37;100177.39;;;2.21;100.00
49709;BME280;35601;55.902;13.606;2024-03-22T05:49:02;100183.46;;;2.96;100.00
49709;BME280;35601;55.902;13.606;2024-03-22T05:51:27;100182.02;;;2.51;100.00
49709;BME280;35601;55.902;13.606;2024-03-22T05:53:53;100182.86;;;2.89;100.00
49709;BME280;35601;55.902;13.606;2024-03-22T05:56:19;100174.56;;;2.93;99.67
49709;BME280;35601;55.902;13.606;2024-03-22T05:58:44;100175.04;;;2.62;99.71
49709;BME280;35601;55.902;13.606;2024-03-22T06:01:09;100177.30;;;2.57;100.00
49709;BME280;35601;55.902;13.606;2024-03-22T06:03:36;100173.83;;;2.55;100.00
49709;BME280;35601;55.902;13.606;2024-03-22T06:06:00;100169.33;;;2.61;100.00
49709;BME280;35601;55.902;13.606;2024-03-22T06:08:25;100170.04;;;2.48;100.00
49709;BME280;35601;55.902;13.606;2024-03-22T06:10:52;100165.59;;;2.70;100.00
49709;BME280;35601;55.902;13.606;2024-03-22T06:13:17;100160.66;;;2.76;100.00
49709;BME280;35601;55.902;13.606;2024-03-22T06:15:43;100156.48;;;2.63;100.00
49709;BME280;35601;55.902;13.606;2024-03-22T06:18:08;100154.66;;;2.94;100.00
49709;BME280;35601;55.902;13.606;2024-03-22T06:20:33;100159.13;;;2.78;100.00
49709;BME280;35601;55.902;13.606;2024-03-22T06:22:59;100159.33;;;2.79;100.00
49709;BME280;35601;55.902;13.606;2024-03-22T06:25:24;100146.88;;;2.87;100.00
49709;BME280;35601;55.902;13.606;2024-03-22T06:27:49;100142.27;;;2.89;100.00
49709;BME280;35601;55.902;13.606;2024-03-22T06:30:15;100141.82;;;3.02;100.00
49709;BME280;35601;55.902;13.606;2024-03-22T06:32:41;100136.90;;;2.87;100.00
49709;BME280;35601;55.902;13.606;2024-03-22T06:35:06;100130.06;;;2.83;100.00
49709;BME280;35601;55.902;13.606;2024-03-22T06:37:32;100126.18;;;2.78;100.00
49709;BME280;35601;55.902;13.606;2024-03-22T06:39:57;100127.72;;;2.88;100.00
49709;BME280;35601;55.902;13.606;2024-03-22T06:42:22;100129.76;;;3.09;100.00
49709;BME280;35601;55.902;13.606;2024-03-22T06:44:47;100123.59;;;2.75;100.00
49709;BME280;35601;55.902;13.606;2024-03-22T06:47:13;100120.54;;;2.78;100.00
49709;BME280;35601;55.902;13.606;2024-03-22T06:49:38;100113.80;;;2.62;100.00
49709;BME280;35601;55.902;13.606;2024-03-22T06:52:04;100116.76;;;2.82;100.00
49709;BME280;35601;55.902;13.606;2024-03-22T06:54:29;100109.80;;;2.89;100.00
49709;BME280;35601;55.902;13.606;2024-03-22T06:56:54;100099.92;;;2.97;100.00
49709;BME280;35601;55.902;13.606;2024-03-22T06:59:20;100095.82;;;2.64;100.00
49709;BME280;35601;55.902;13.606;2024-03-22T07:01:45;100098.20;;;2.75;100.00
49709;BME280;35601;55.902;13.606;2024-03-22T07:04:10;100091.41;;;3.06;100.00
49709;BME280;35601;55.902;13.606;2024-03-22T07:06:36;100088.87;;;2.71;100.00
49709;BME280;35601;55.902;13.606;2024-03-22T07:09:01;100084.90;;;2.55;100.00
49709;BME280;35601;55.902;13.606;2024-03-22T07:11:27;100085.85;;;2.99;100.00
49709;BME280;35601;55.902;13.606;2024-03-22T07:13:52;100084.18;;;2.72;100.00
49709;BME280;35601;55.902;13.606;2024-03-22T07:16:18;100086.61;;;2.90;100.00
49709;BME280;35601;55.902;13.606;2024-03-22T07:18:42;100078.28;;;2.77;100.00
49709;BME280;35601;55.902;13.606;2024-03-22T07:21:08;100075.74;;;2.94;100.00
49709;BME280;35601;55.902;13.606;2024-03-22T07:23:33;100068.67;;;3.12;100.00
49709;BME280;35601;55.902;13.606;2024-03-22T07:25:59;100060.28;;;3.01;100.00
49709;BME280;35601;55.902;13.606;2024-03-22T07:28:24;100058.28;;;3.18;100.00
49709;BME280;35601;55.902;13.606;2024-03-22T07:30:49;100056.20;;;2.93;100.00
49709;BME280;35601;55.902;13.606;2024-03-22T07:33:15;100056.91;;;3.03;100.00
49709;BME280;35601;55.902;13.606;2024-03-22T07:35:40;100056.51;;;3.05;100.00
49709;BME280;35601;55.902;13.606;2024-03-22T07:38:06;100055.87;;;3.45;100.00
49709;BME280;35601;55.902;13.606;2024-03-22T07:40:32;100048.83;;;3.12;100.00
49709;BME280;35601;55.902;13.606;2024-03-22T07:42:56;100040.59;;;2.75;100.00
49709;BME280;35601;55.902;13.606;2024-03-22T07:45:22;100045.88;;;2.92;100.00
49709;BME280;35601;55.902;13.606;2024-03-22T07:47:48;100045.27;;;3.40;100.00
49709;BME280;35601;55.902;13.606;2024-03-22T07:50:13;100040.01;;;3.20;100.00
49709;BME280;35601;55.902;13.606;2024-03-22T07:52:39;100041.90;;;3.14;100.00
49709;BME280;35601;55.902;13.606;2024-03-22T07:55:04;100044.02;;;3.35;100.00
49709;BME280;35601;55.902;13.606;2024-03-22T07:57:29;100042.74;;;3.92;100.00
49709;BME280;35601;55.902;13.606;2024-03-22T07:59:54;100038.93;;;3.93;100.00
49709;BME280;35601;55.902;13.606;2024-03-22T08:02:20;100031.18;;;3.38;100.00
49709;BME280;35601;55.902;13.606;2024-03-22T08:04:45;100030.87;;;3.79;100.00
49709;BME280;35601;55.902;13.606;2024-03-22T08:07:11;100026.67;;;3.46;100.00
49709;BME280;35601;55.902;13.606;2024-03-22T08:09:36;100022.07;;;3.55;100.00
49709;BME280;35601;55.902;13.606;2024-03-22T08:12:02;100024.90;;;3.57;100.00
49709;BME280;35601;55.902;13.606;2024-03-22T08:14:28;100018.80;;;3.79;100.00
49709;BME280;35601;55.902;13.606;2024-03-22T08:16:53;100015.58;;;3.80;99.42
49709;BME280;35601;55.902;13.606;2024-03-22T08:19:19;100019.32;;;4.25;99.70
49709;BME280;35601;55.902;13.606;2024-03-22T08:21:45;100018.35;;;3.94;98.77
49709;BME280;35601;55.902;13.606;2024-03-22T08:24:10;100005.91;;;3.98;98.37
49709;BME280;35601;55.902;13.606;2024-03-22T08:26:36;100011.60;;;4.23;97.63
49709;BME280;35601;55.902;13.606;2024-03-22T08:29:01;100011.38;;;4.10;97.21
49709;BME280;35601;55.902;13.606;2024-03-22T08:31:27;100007.07;;;4.18;96.55
49709;BME280;35601;55.902;13.606;2024-03-22T08:33:52;100010.70;;;4.45;95.96
49709;BME280;35601;55.902;13.606;2024-03-22T08:36:18;100004.29;;;4.09;95.89
49709;BME280;35601;55.902;13.606;2024-03-22T08:38:44;100004.07;;;4.20;95.38
49709;BME280;35601;55.902;13.606;2024-03-22T08:41:09;100005.49;;;4.30;95.31
49709;BME280;35601;55.902;13.606;2024-03-22T08:43:34;99998.39;;;4.44;95.01
49709;BME280;35601;55.902;13.606;2024-03-22T08:46:00;99999.89;;;4.71;94.56
49709;BME280;35601;55.902;13.606;2024-03-22T08:48:26;99994.06;;;4.60;94.15
49709;BME280;35601;55.902;13.606;2024-03-22T08:50:51;99986.29;;;4.57;93.99
49709;BME280;35601;55.902;13.606;2024-03-22T08:53:16;99984.06;;;4.68;94.00
49709;BME280;35601;55.902;13.606;2024-03-22T08:55:45;99981.68;;;4.85;93.52
49709;BME280;35601;55.902;13.606;2024-03-22T08:58:07;99978.05;;;4.93;92.77
49709;BME280;35601;55.902;13.606;2024-03-22T09:00:32;99983.61;;;4.94;92.53
49709;BME280;35601;55.902;13.606;2024-03-22T09:02:58;99981.08;;;4.88;92.75
49709;BME280;35601;55.902;13.606;2024-03-22T09:05:23;99967.79;;;4.87;92.85
49709;BME280;35601;55.902;13.606;2024-03-22T09:07:49;99963.89;;;4.82;93.06
49709;BME280;35601;55.902;13.606;2024-03-22T09:10:14;99961.39;;;4.76;93.19
49709;BME280;35601;55.902;13.606;2024-03-22T09:12:39;99963.35;;;4.93;93.07
49709;BME280;35601;55.902;13.606;2024-03-22T09:15:06;99964.46;;;4.96;92.78
49709;BME280;35601;55.902;13.606;2024-03-22T09:17:30;99973.63;;;4.91;93.73
49709;BME280;35601;55.902;13.606;2024-03-22T09:19:56;99968.01;;;4.52;94.13
49709;BME280;35601;55.902;13.606;2024-03-22T09:22:21;99962.27;;;4.70;94.28
49709;BME280;35601;55.902;13.606;2024-03-22T09:24:46;99960.81;;;5.11;93.67
49709;BME280;35601;55.902;13.606;2024-03-22T09:27:12;99957.10;;;4.86;93.76
49709;BME280;35601;55.902;13.606;2024-03-22T09:29:38;99952.70;;;4.92;94.20
49709;BME280;35601;55.902;13.606;2024-03-22T09:32:03;99949.15;;;5.08;93.81
49709;BME280;35601;55.902;13.606;2024-03-22T09:34:28;99950.46;;;5.13;93.43
49709;BME280;35601;55.902;13.606;2024-03-22T09:36:53;99947.85;;;4.99;93.20
49709;BME280;35601;55.902;13.606;2024-03-22T09:39:19;99944.79;;;5.05;92.95
49709;BME280;35601;55.902;13.606;2024-03-22T09:41:44;99941.63;;;5.03;92.97
49709;BME280;35601;55.902;13.606;2024-03-22T09:44:13;99944.65;;;4.99;92.82
49709;BME280;35601;55.902;13.606;2024-03-22T09:46:36;99949.34;;;4.98;92.92
49709;BME280;35601;55.902;13.606;2024-03-22T09:49:01;99943.02;;;5.04;93.40
49709;BME280;35601;55.902;13.606;2024-03-22T09:51:27;99944.94;;;4.89;93.47
49709;BME280;35601;55.902;13.606;2024-03-22T09:53:52;99943.12;;;5.33;93.38
49709;BME280;35601;55.902;13.606;2024-03-22T09:56:20;99939.74;;;5.20;92.61
49709;BME280;35601;55.902;13.606;2024-03-22T09:58:44;99939.15;;;5.15;92.33
49709;BME280;35601;55.902;13.606;2024-03-22T10:01:09;99936.11;;;5.30;93.11
49709;BME280;35601;55.902;13.606;2024-03-22T10:03:35;99934.00;;;5.18;93.19
49709;BME280;35601;55.902;13.606;2024-03-22T10:06:01;99929.14;;;5.29;93.18
49709;BME280;35601;55.902;13.606;2024-03-22T10:08:26;99928.84;;;4.90;92.69
49709;BME280;35601;55.902;13.606;2024-03-22T10:10:52;99925.92;;;5.18;92.39
49709;BME280;35601;55.902;13.606;2024-03-22T10:13:17;99917.87;;;5.10;92.78
49709;BME280;35601;55.902;13.606;2024-03-22T10:15:42;99925.63;;;4.96;93.21
49709;BME280;35601;55.902;13.606;2024-03-22T10:18:10;99931.00;;;5.38;93.36
49709;BME280;35601;55.902;13.606;2024-03-22T10:20:34;99928.05;;;5.07;92.83
49709;BME280;35601;55.902;13.606;2024-03-22T10:22:59;99922.64;;;5.31;92.25
49709;BME280;35601;55.902;13.606;2024-03-22T10:25:25;99916.71;;;5.28;92.51
49709;BME280;35601;55.902;13.606;2024-03-22T10:27:50;99921.82;;;5.23;92.28
49709;BME280;35601;55.902;13.606;2024-03-22T10:30:16;99923.91;;;5.31;91.33
49709;BME280;35601;55.902;13.606;2024-03-22T10:32:42;99926.79;;;5.76;91.17
49709;BME280;35601;55.902;13.606;2024-03-22T10:35:11;99921.01;;;5.17;91.21
49709;BME280;35601;55.902;13.606;2024-03-22T10:37:33;99923.12;;;5.40;91.20
49709;BME280;35601;55.902;13.606;2024-03-22T10:40:02;99923.18;;;5.30;91.05
49709;BME280;35601;55.902;13.606;2024-03-22T10:42:24;99919.96;;;5.36;90.98
49709;BME280;35601;55.902;13.606;2024-03-22T10:44:49;99922.99;;;5.40;90.88
49709;BME280;35601;55.902;13.606;2024-03-22T10:47:17;99922.67;;;5.40;91.14
49709;BME280;35601;55.902;13.606;2024-03-22T10:49:41;99915.20;;;5.37;91.57
49709;BME280;35601;55.902;13.606;2024-03-22T10:52:08;99919.02;;;5.71;91.33
49709;BME280;35601;55.902;13.606;2024-03-22T10:54:35;99922.17;;;5.80;91.02
49709;BME280;35601;55.902;13.606;2024-03-22T10:56:58;99914.44;;;5.57;90.53
49709;BME280;35601;55.902;13.606;2024-03-22T10:59:23;99908.38;;;5.68;90.94
49709;BME280;35601;55.902;13.606;2024-03-22T11:01:49;99901.15;;;5.67;90.91
49709;BME280;35601;55.902;13.606;2024-03-22T11:04:15;99897.30;;;5.74;90.62
49709;BME280;35601;55.902;13.606;2024-03-22T11:06:39;99891.95;;;5.86;90.55
49709;BME280;35601;55.902;13.606;2024-03-22T11:09:05;99890.30;;;5.89;90.35
49709;BME280;35601;55.902;13.606;2024-03-22T11:11:30;99891.64;;;5.85;89.90
49709;BME280;35601;55.902;13.606;2024-03-22T11:13:55;99894.84;;;5.83;89.90
49709;BME280;35601;55.902;13.606;2024-03-22T11:16:21;99888.86;;;5.93;89.85
49709;BME280;35601;55.902;13.606;2024-03-22T11:18:46;99880.99;;;5.97;89.68
49709;BME280;35601;55.902;13.606;2024-03-22T11:21:12;99884.17;;;5.65;90.10
49709;BME280;35601;55.902;13.606;2024-03-22T11:23:37;99881.99;;;6.05;90.12
49709;BME280;35601;55.902;13.606;2024-03-22T11:26:03;99875.43;;;5.73;89.71
49709;BME280;35601;55.902;13.606;2024-03-22T11:28:28;99867.45;;;6.21;90.07
49709;BME280;35601;55.902;13.606;2024-03-22T11:30:53;99862.68;;;5.81;90.16
49709;BME280;35601;55.902;13.606;2024-03-22T11:33:18;99862.67;;;6.03;89.72
49709;BME280;35601;55.902;13.606;2024-03-22T11:35:44;99859.42;;;6.12;90.10
49709;BME280;35601;55.902;13.606;2024-03-22T11:38:09;99854.41;;;6.13;90.01
49709;BME280;35601;55.902;13.606;2024-03-22T11:40:36;99850.75;;;5.84;89.94
49709;BME280;35601;55.902;13.606;2024-03-22T11:43:01;99851.03;;;6.16;89.72
49709;BME280;35601;55.902;13.606;2024-03-22T11:45:26;99837.20;;;5.90;89.21
49709;BME280;35601;55.902;13.606;2024-03-22T11:47:51;99836.09;;;5.81;89.37
49709;BME280;35601;55.902;13.606;2024-03-22T11:50:17;99830.23;;;5.98;90.11
49709;BME280;35601;55.902;13.606;2024-03-22T11:52:43;99826.91;;;5.96;90.34
49709;BME280;35601;55.902;13.606;2024-03-22T11:55:10;99825.91;;;5.99;90.47
49709;BME280;35601;55.902;13.606;2024-03-22T11:57:34;99823.87;;;5.73;90.72
49709;BME280;35601;55.902;13.606;2024-03-22T12:00:00;99824.61;;;5.78;90.60
49709;BME280;35601;55.902;13.606;2024-03-22T12:02:25;99824.06;;;5.84;90.37
49709;BME280;35601;55.902;13.606;2024-03-22T12:04:50;99821.16;;;5.57;90.47
49709;BME280;35601;55.902;13.606;2024-03-22T12:07:16;99808.96;;;5.87;90.31
49709;BME280;35601;55.902;13.606;2024-03-22T12:09:41;99803.57;;;5.74;90.94
49709;BME280;35601;55.902;13.606;2024-03-22T12:12:08;99799.15;;;5.62;90.76
49709;BME280;35601;55.902;13.606;2024-03-22T12:14:32;99795.63;;;5.81;90.96
49709;BME280;35601;55.902;13.606;2024-03-22T12:16:58;99797.92;;;5.85;91.14
49709;BME280;35601;55.902;13.606;2024-03-22T12:19:23;99795.08;;;5.82;90.97
49709;BME280;35601;55.902;13.606;2024-03-22T12:21:49;99796.19;;;5.87;90.91
49709;BME280;35601;55.902;13.606;2024-03-22T12:24:14;99794.22;;;5.84;91.03
49709;BME280;35601;55.902;13.606;2024-03-22T12:26:39;99793.84;;;5.71;91.17
49709;BME280;35601;55.902;13.606;2024-03-22T12:29:05;99787.07;;;5.84;90.79
49709;BME280;35601;55.902;13.606;2024-03-22T12:31:31;99780.51;;;5.84;90.83
49709;BME280;35601;55.902;13.606;2024-03-22T12:33:56;99780.81;;;5.64;91.20
49709;BME280;35601;55.902;13.606;2024-03-22T12:36:21;99780.85;;;5.83;91.20